Time;durP1;ratioP1;P1;durP2;ratioP2;P2;SDS_P1;SDS_P2;PMS_P1;PMS_P2;Temp;Humidity;BMP_temperature;BMP_pressure;BME280_temperature;BME280_humidity;BME280_pressure;Samples;Min_cycle;Max_cycle;Signal;HPM_P1;HPM_P2
2020/12/07 00:00:24;;;;;;;18.43;11.87;;;;;;;0.04;100.00;96082.94;5001852;28;20201;-68
2020/12/07 00:02:51;;;;;;;15.30;11.03;;;;;;;0.07;100.00;96090.47;4986285;28;20220;-71
2020/12/07 00:05:18;;;;;;;13.60;10.73;;;;;;;-0.01;100.00;96090.34;4988786;28;20255;-68
2020/12/07 00:07:46;;;;;;;11.47;9.77;;;;;;;0.08;100.00;96089.50;4998451;28;20201;-69
2020/12/07 00:10:25;;;;;;;11.73;10.17;;;;;;;0.13;100.00;96100.31;4961326;28;20219;-68
2020/12/07 00:12:52;;;;;;;12.30;9.10;;;;;;;0.14;100.00;96098.50;4994310;28;20287;-69
2020/12/07 00:15:19;;;;;;;12.60;9.20;;;;;;;0.13;100.00;96108.13;4997627;28;20229;-68
2020/12/07 00:17:46;;;;;;;8.80;7.60;;;;;;;0.22;100.00;96109.03;4988737;28;20213;-70
2020/12/07 00:20:14;;;;;;;10.23;7.27;;;;;;;0.17;100.00;96108.63;4997647;28;20205;-67
2020/12/07 00:22:41;;;;;;;11.57;9.43;;;;;;;0.07;100.00;96110.47;5000077;28;20232;-70
2020/12/07 00:25:09;;;;;;;10.77;8.43;;;;;;;0.11;100.00;96110.06;4964118;28;20232;-68
2020/12/07 00:27:36;;;;;;;9.60;8.53;;;;;;;0.10;100.00;96111.00;4995296;28;20232;-69
2020/12/07 00:30:05;;;;;;;10.07;8.30;;;;;;;0.11;100.00;96101.41;4999398;28;20243;-69
2020/12/07 00:32:33;;;;;;;10.90;8.33;;;;;;;0.07;100.00;96089.63;4993453;28;20201;-70
2020/12/07 00:35:01;;;;;;;8.97;8.03;;;;;;;0.10;100.00;96078.91;4986343;28;20739;-70
2020/12/07 00:37:28;;;;;;;10.43;8.80;;;;;;;0.13;100.00;96095.09;4996448;28;20189;-71
2020/12/07 00:39:55;;;;;;;8.37;7.57;;;;;;;0.36;100.00;96097.28;4961725;28;20217;-71
2020/12/07 00:42:23;;;;;;;8.20;7.40;;;;;;;0.34;100.00;96101.00;4996209;28;20239;-68
2020/12/07 00:44:50;;;;;;;10.20;8.00;;;;;;;0.23;100.00;96100.25;4996892;28;20236;-70
2020/12/07 00:47:17;;;;;;;8.33;7.53;;;;;;;0.23;100.00;96100.25;4999941;28;20216;-69
2020/12/07 00:49:44;;;;;;;9.47;7.80;;;;;;;0.24;100.00;96101.91;4985682;28;20205;-70
2020/12/07 00:52:11;;;;;;;7.73;6.93;;;;;;;0.30;100.00;96095.25;4999067;28;20210;-67
2020/12/07 00:54:38;;;;;;;8.60;7.47;;;;;;;0.26;100.00;96092.16;4958893;28;20233;-70
2020/12/07 00:57:06;;;;;;;7.43;6.73;;;;;;;0.34;100.00;96103.63;4997669;28;20490;-67
2020/12/07 00:59:34;;;;;;;7.43;6.73;;;;;;;0.33;100.00;96094.16;4997159;28;21823;-68
2020/12/07 01:02:03;;;;;;;8.43;7.53;;;;;;;0.26;100.00;96099.97;5003146;28;20264;-69
2020/12/07 01:04:30;;;;;;;7.87;6.83;;;;;;;0.28;100.00;96097.19;4989575;28;20232;-69
2020/12/07 01:06:57;;;;;;;8.17;6.53;;;;;;;0.22;100.00;96093.41;5005976;28;20209;-71
2020/12/07 01:09:24;;;;;;;7.90;7.10;;;;;;;0.24;100.00;96090.66;4996360;28;20274;-71
2020/12/07 01:11:55;;;;;;;7.90;7.07;;;;;;;0.23;100.00;96087.22;4964793;28;20228;-71
2020/12/07 01:14:22;;;;;;;8.07;7.23;;;;;;;0.24;100.00;96082.81;4999199;28;20229;-70
2020/12/07 01:16:50;;;;;;;9.47;7.83;;;;;;;0.31;100.00;96085.69;5001641;28;20204;-70
2020/12/07 01:19:18;;;;;;;9.70;8.57;;;;;;;0.26;100.00;96080.88;4998843;28;20209;-71
2020/12/07 01:21:45;;;;;;;10.93;8.87;;;;;;;0.26;100.00;96086.09;4991008;28;20225;-69
2020/12/07 01:24:12;;;;;;;9.57;7.90;;;;;;;0.28;100.00;96076.34;5000021;28;20271;-70
2020/12/07 01:26:39;;;;;;;9.33;7.60;;;;;;;0.22;100.00;96075.16;4959405;28;20272;-68
2020/12/07 01:29:07;;;;;;;8.03;7.23;;;;;;;0.35;100.00;96081.81;5004158;28;20231;-69
2020/12/07 01:31:34;;;;;;;9.47;8.50;;;;;;;0.23;100.00;96082.03;5001306;28;20205;-68
2020/12/07 01:34:04;;;;;;;8.37;7.57;;;;;;;0.23;100.00;96084.63;5005422;28;20205;-69
2020/12/07 01:36:31;;;;;;;8.83;7.93;;;;;;;0.14;100.00;96069.84;4991445;28;20213;-68
2020/12/07 01:38:58;;;;;;;8.67;7.47;;;;;;;0.08;100.00;96070.44;4999654;28;20208;-70
2020/12/07 01:41:26;;;;;;;7.37;6.67;;;;;;;0.19;100.00;96078.06;5003263;28;20858;-68
2020/12/07 01:43:53;;;;;;;8.67;6.90;;;;;;;0.16;100.00;96077.53;4968779;28;20205;-69
2020/12/07 01:46:22;;;;;;;8.33;7.17;;;;;;;0.22;100.00;96076.94;4997806;28;20204;-70
2020/12/07 01:48:49;;;;;;;7.10;6.47;;;;;;;0.18;100.00;96073.00;4996233;28;20235;-70
2020/12/07 01:51:18;;;;;;;7.23;6.53;;;;;;;0.26;100.00;96073.91;4987890;28;20232;-70
2020/12/07 01:53:45;;;;;;;7.03;6.33;;;;;;;0.16;100.00;96072.31;4986410;28;20858;-70
2020/12/07 01:56:13;;;;;;;6.80;6.20;;;;;;;0.09;100.00;96083.31;5001754;28;20456;-70
2020/12/07 01:58:41;;;;;;;7.13;6.53;;;;;;;0.20;100.00;96097.13;4961982;28;20865;-67
2020/12/07 02:01:08;;;;;;;7.63;6.93;;;;;;;0.14;100.00;96107.16;5001146;28;20212;-69
2020/12/07 02:03:35;;;;;;;6.63;6.03;;;;;;;0.22;100.00;96098.63;5001438;28;20596;-67
2020/12/07 02:06:03;;;;;;;7.50;6.77;;;;;;;0.18;100.00;96105.06;5004474;28;20229;-69
2020/12/07 02:08:30;;;;;;;7.77;7.03;;;;;;;0.21;100.00;96107.41;4987862;28;20208;-68
2020/12/07 02:10:57;;;;;;;5.83;5.37;;;;;;;0.16;100.00;96107.00;5003023;28;20448;-70
2020/12/07 02:13:25;;;;;;;7.53;6.90;;;;;;;0.11;100.00;96099.63;4997639;28;20216;-68
2020/12/07 02:15:52;;;;;;;6.40;5.80;;;;;;;0.10;100.00;96087.56;4968377;28;20887;-70
2020/12/07 02:18:19;;;;;;;6.47;5.90;;;;;;;0.21;100.00;96096.16;5003501;28;20208;-71
2020/12/07 02:20:48;;;;;;;6.90;6.07;;;;;;;0.14;100.00;96094.13;5001667;28;20197;-70
2020/12/07 02:23:15;;;;;;;6.97;6.30;;;;;;;0.32;100.00;96106.34;4992534;28;20233;-70
2020/12/07 02:25:42;;;;;;;6.53;5.93;;;;;;;0.31;100.00;96116.94;4999959;28;20233;-66
2020/12/07 02:28:09;;;;;;;6.03;5.43;;;;;;;0.31;100.00;96122.97;4999152;28;20827;-69
2020/12/07 02:30:36;;;;;;;7.40;6.70;;;;;;;0.24;100.00;96122.75;4963237;28;20283;-66
2020/12/07 02:33:03;;;;;;;6.97;6.33;;;;;;;0.22;100.00;96129.03;5000966;28;20215;-70
2020/12/07 02:35:30;;;;;;;6.83;6.17;;;;;;;0.34;100.00;96142.72;4997846;28;20225;-67
2020/12/07 02:37:59;;;;;;;5.93;5.33;;;;;;;0.36;100.00;96146.78;4987118;28;21415;-69
2020/12/07 02:40:26;;;;;;;6.90;6.30;;;;;;;0.38;100.00;96144.06;5000893;28;20436;-68
2020/12/07 02:42:53;;;;;;;6.07;5.57;;;;;;;0.25;100.00;96150.44;4995989;28;20940;-70
2020/12/07 02:45:20;;;;;;;6.90;6.20;;;;;;;0.33;100.00;96162.72;4968858;28;20247;-70
2020/12/07 02:47:47;;;;;;;6.93;6.33;;;;;;;0.33;100.00;96170.53;4996362;28;20228;-70
2020/12/07 02:50:14;;;;;;;6.13;5.57;;;;;;;0.28;100.00;96171.00;5002156;28;20305;-70
2020/12/07 02:52:41;;;;;;;5.80;5.30;;;;;;;0.29;100.00;96169.19;4997991;28;20204;-67
2020/12/07 02:55:10;;;;;;;4.90;4.60;;;;;;;0.34;100.00;96179.19;4987335;28;20224;-70
2020/12/07 02:57:38;;;;;;;5.53;5.13;;;;;;;0.16;100.00;96187.75;4998198;28;20455;-67
2020/12/07 03:00:06;;;;;;;5.17;4.70;;;;;;;0.16;100.00;96177.31;4966306;28;20209;-67
2020/12/07 03:02:35;;;;;;;5.03;4.63;;;;;;;0.13;100.00;96182.81;4996548;28;20223;-69
2020/12/07 03:05:02;;;;;;;4.90;4.60;;;;;;;0.08;100.00;96174.63;4998041;28;20282;-67
2020/12/07 03:07:29;;;;;;;5.30;4.90;;;;;;;0.21;100.00;96179.50;5000656;28;20916;-69
2020/12/07 03:09:56;;;;;;;5.30;4.90;;;;;;;0.20;100.00;96172.66;4988415;28;20205;-67
2020/12/07 03:12:24;;;;;;;5.17;4.77;;;;;;;0.15;100.00;96170.47;4995860;28;20861;-70
2020/12/07 03:14:51;;;;;;;5.60;5.20;;;;;;;0.17;100.00;96171.16;4994715;28;20229;-67
2020/12/07 03:17:19;;;;;;;5.90;5.40;;;;;;;0.10;100.00;96177.91;4956856;28;20205;-71
2020/12/07 03:19:46;;;;;;;5.60;5.20;;;;;;;0.07;100.00;96202.47;4997648;28;20212;-67
2020/12/07 03:22:13;;;;;;;5.13;4.83;;;;;;;0.17;100.00;96192.00;5000131;28;20221;-70
2020/12/07 03:24:40;;;;;;;5.43;5.03;;;;;;;0.12;100.00;96191.59;4974861;28;20272;-67
2020/12/07 03:27:07;;;;;;;5.40;5.00;;;;;;;0.16;100.00;96189.56;4989649;28;20703;-69
2020/12/07 03:29:35;;;;;;;5.93;5.43;;;;;;;0.31;100.00;96201.13;4998740;28;20205;-66
2020/12/07 03:32:02;;;;;;;6.37;5.77;;;;;;;0.33;100.00;96216.63;4957668;28;20417;-69
2020/12/07 03:34:29;;;;;;;5.87;5.47;;;;;;;0.25;100.00;96218.19;4999478;28;20244;-67
2020/12/07 03:36:57;;;;;;;6.93;6.43;;;;;;;0.22;100.00;96222.84;5001472;28;20211;-69
2020/12/07 03:39:24;;;;;;;6.23;5.77;;;;;;;0.12;100.00;96236.72;4994536;28;20753;-70
2020/12/07 03:41:51;;;;;;;6.53;5.93;;;;;;;0.34;100.00;96242.53;4980732;28;20213;-70
2020/12/07 03:44:18;;;;;;;6.30;5.90;;;;;;;0.36;100.00;96245.81;4996950;28;20235;-70
2020/12/07 03:46:46;;;;;;;6.30;5.80;;;;;;;0.38;100.00;96246.53;4962853;28;20209;-66
2020/12/07 03:49:13;;;;;;;7.10;6.57;;;;;;;0.32;100.00;96239.25;4996617;28;20207;-70
2020/12/07 03:51:40;;;;;;;7.13;6.63;;;;;;;0.18;100.00;96240.53;4992858;28;20210;-66
2020/12/07 03:54:07;;;;;;;7.60;6.90;;;;;;;0.27;100.00;96237.09;4990675;28;20208;-69
2020/12/07 03:56:34;;;;;;;7.10;6.60;;;;;;;0.20;100.00;96245.63;4982495;28;20581;-66
2020/12/07 03:59:01;;;;;;;8.10;7.40;;;;;;;0.33;100.00;96245.31;4995638;28;20387;-70
2020/12/07 04:01:28;;;;;;;7.67;7.07;;;;;;;0.32;100.00;96254.09;5000326;28;20580;-67
2020/12/07 04:04:00;;;;;;;7.67;6.97;;;;;;;0.25;100.00;96259.03;4956268;28;20435;-70
2020/12/07 04:06:29;;;;;;;8.63;7.93;;;;;;;0.43;100.00;96261.72;5003702;28;20444;-67
2020/12/07 04:08:56;;;;;;;7.20;6.70;;;;;;;0.37;100.00;96264.91;4995180;28;20228;-70
2020/12/07 04:11:23;;;;;;;8.47;7.77;;;;;;;0.32;100.00;96262.72;5001130;28;20247;-70
2020/12/07 04:13:50;;;;;;;8.70;7.90;;;;;;;0.36;100.00;96260.66;4980182;28;20401;-70
2020/12/07 04:16:17;;;;;;;8.67;7.97;;;;;;;0.24;100.00;96255.63;5001061;28;20991;-71
2020/12/07 04:18:45;;;;;;;8.63;7.83;;;;;;;0.35;100.00;96257.22;4966497;28;20223;-67
2020/12/07 04:21:13;;;;;;;7.73;7.03;;;;;;;0.37;100.00;96260.50;4997594;28;20205;-70
2020/12/07 04:23:40;;;;;;;9.20;8.40;;;;;;;0.27;100.00;96255.34;4996088;28;20229;-67
2020/12/07 04:26:07;;;;;;;10.17;9.27;;;;;;;0.23;100.00;96251.38;4995044;28;20294;-70
2020/12/07 04:28:33;;;;;;;9.77;8.97;;;;;;;0.16;100.00;96246.88;4981580;28;20212;-67
2020/12/07 04:31:00;;;;;;;10.60;9.53;;;;;;;0.23;100.00;96260.97;4998330;28;20701;-68
2020/12/07 04:33:28;;;;;;;10.17;9.27;;;;;;;0.28;100.00;96264.78;4997612;28;20864;-67
2020/12/07 04:35:56;;;;;;;9.37;8.57;;;;;;;0.45;100.00;96253.75;4967206;28;20228;-67
2020/12/07 04:38:24;;;;;;;9.63;8.83;;;;;;;0.26;100.00;96255.47;5008338;28;20276;-71
2020/12/07 04:40:51;;;;;;;11.53;10.57;;;;;;;0.32;100.00;96254.88;4995477;28;20330;-70
2020/12/07 04:43:18;;;;;;;10.33;9.53;;;;;;;0.31;100.00;96255.84;4993131;28;20261;-70
2020/12/07 04:45:45;;;;;;;10.07;9.17;;;;;;;0.26;100.00;96261.50;4993515;28;20228;-67
2020/12/07 04:48:13;;;;;;;10.70;9.77;;;;;;;0.31;100.00;96257.66;5001501;28;20209;-71
2020/12/07 04:50:40;;;;;;;11.23;10.23;;;;;;;0.36;100.00;96258.84;4955966;28;20237;-67
2020/12/07 04:53:07;;;;;;;10.67;9.63;;;;;;;0.43;100.00;96265.16;4993435;28;20204;-71
2020/12/07 04:55:35;;;;;;;11.70;10.53;;;;;;;0.35;100.00;96279.84;5000382;28;20645;-67
2020/12/07 04:58:02;;;;;;;11.47;10.43;;;;;;;0.38;100.00;96279.56;4996917;28;20854;-71
2020/12/07 05:00:29;;;;;;;11.37;10.33;;;;;;;0.42;100.00;96281.75;4986374;28;20214;-68
2020/12/07 05:02:59;;;;;;;10.90;9.90;;;;;;;0.38;100.00;96283.00;4997156;28;20330;-68
2020/12/07 05:05:26;;;;;;;11.03;10.03;;;;;;;0.31;100.00;96288.91;5006238;28;20227;-69
2020/12/07 05:07:53;;;;;;;11.27;10.27;;;;;;;0.34;100.00;96301.66;4963672;28;20302;-67
2020/12/07 05:10:27;;;;;;;11.17;10.07;;;;;;;0.37;100.00;96298.78;5005646;28;20560;-68
2020/12/07 05:13:03;;;;;;;12.20;11.00;;;;;;;0.35;100.00;96317.13;4995562;28;20318;-68
2020/12/07 05:15:31;;;;;;;11.53;10.40;;;;;;;0.32;100.00;96319.22;4984402;28;20236;-66
2020/12/07 05:17:59;;;;;;;12.70;11.40;;;;;;;0.52;100.00;96328.63;4996246;28;20296;-67
2020/12/07 05:20:26;;;;;;;12.07;10.97;;;;;;;0.45;100.00;96331.97;5001888;28;20738;-66
2020/12/07 05:22:54;;;;;;;12.90;11.60;;;;;;;0.52;100.00;96335.63;4961812;28;20220;-67
2020/12/07 05:25:22;;;;;;;12.10;10.83;;;;;;;0.50;100.00;96337.56;4979211;28;20227;-65
2020/12/07 05:27:51;;;;;;;12.23;11.03;;;;;;;0.60;100.00;96329.72;5002312;28;20205;-66
2020/12/07 05:30:22;;;;;;;11.97;10.77;;;;;;;0.45;100.00;96329.34;4989219;28;20208;-66
2020/12/07 05:32:49;;;;;;;11.37;10.37;;;;;;;0.44;100.00;96331.13;4988860;28;20216;-67
2020/12/07 05:35:16;;;;;;;12.40;11.30;;;;;;;0.36;100.00;96338.81;4997430;28;20258;-66
2020/12/07 05:37:43;;;;;;;12.17;10.87;;;;;;;0.37;100.00;96337.88;4967276;28;21606;-67
2020/12/07 05:40:12;;;;;;;12.50;11.20;;;;;;;0.28;100.00;96337.75;5001107;28;20209;-66
2020/12/07 05:42:39;;;;;;;9.53;8.53;;;;;;;0.41;100.00;96340.06;5002861;28;20260;-66
2020/12/07 05:45:07;;;;;;;11.13;10.13;;;;;;;0.30;100.00;96337.59;4998710;28;20236;-66
2020/12/07 05:47:37;;;;;;;10.87;9.77;;;;;;;0.31;100.00;96338.44;4970138;28;20205;-69
2020/12/07 05:50:05;;;;;;;11.70;10.63;;;;;;;0.23;100.00;96339.13;4996588;28;20493;-66
2020/12/07 05:52:36;;;;;;;10.97;9.97;;;;;;;0.19;100.00;96343.81;4959855;28;20581;-69
2020/12/07 05:55:04;;;;;;;11.27;10.27;;;;;;;0.20;100.00;96350.66;4996289;28;20728;-68
2020/12/07 05:57:31;;;;;;;9.97;9.07;;;;;;;0.26;100.00;96352.72;5000796;28;20194;-71
2020/12/07 06:00:04;;;;;;;10.43;9.43;;;;;;;0.24;100.00;96354.63;4994387;28;20209;-68
2020/12/07 06:02:33;;;;;;;10.83;9.83;;;;;;;0.15;100.00;96347.63;4991433;28;20209;-69
2020/12/07 06:05:03;;;;;;;11.47;10.47;;;;;;;0.13;100.00;96354.75;4996338;28;20247;-66
2020/12/07 06:07:34;;;;;;;10.13;9.33;;;;;;;0.06;100.00;96356.28;4962928;28;20600;-69
2020/12/07 06:10:02;;;;;;;10.40;9.50;;;;;;;0.14;100.00;96359.84;4992502;28;20216;-69
2020/12/07 06:12:36;;;;;;;10.23;9.33;;;;;;;0.20;100.00;96368.06;4994207;28;20224;-68
2020/12/07 06:15:03;;;;;;;10.80;9.73;;;;;;;0.24;100.00;96378.09;4992935;28;20460;-69
2020/12/07 06:17:31;;;;;;;10.07;9.17;;;;;;;0.19;100.00;96379.44;4999239;28;20205;-69
2020/12/07 06:19:59;;;;;;;10.67;9.73;;;;;;;0.21;100.00;96375.75;5003947;28;20212;-69
2020/12/07 06:22:29;;;;;;;10.27;9.37;;;;;;;0.17;100.00;96387.38;4967285;28;20197;-66
2020/12/07 06:24:59;;;;;;;11.00;9.63;;;;;;;0.20;100.00;96389.75;5002919;28;20248;-70
2020/12/07 06:27:26;;;;;;;10.33;9.43;;;;;;;0.19;100.00;96385.50;4999465;28;20204;-66
2020/12/07 06:29:58;;;;;;;10.50;9.50;;;;;;;0.12;100.00;96382.59;5002609;28;20287;-69
2020/12/07 06:32:45;;;;;;;9.47;8.67;;;;;;;0.08;100.00;96389.06;5001989;28;20212;-66
2020/12/07 06:35:12;;;;;;;9.77;8.87;;;;;;;0.12;100.00;96381.78;4997522;28;20224;-66
2020/12/07 06:37:45;;;;;;;8.87;8.07;;;;;;;0.07;100.00;96386.56;4963434;28;20410;-68
2020/12/07 06:40:13;;;;;;;10.13;9.23;;;;;;;0.05;100.00;96385.91;4993009;28;20647;-69
2020/12/07 06:42:44;;;;;;;10.07;9.17;;;;;;;0.31;100.00;96387.94;4991968;28;20939;-70
2020/12/07 06:45:21;;;;;;;10.00;9.00;;;;;;;0.33;100.00;96394.66;4988338;28;20240;-66
2020/12/07 06:47:50;;;;;;;9.23;8.20;;;;;;;0.61;100.00;96406.97;4992634;28;20208;-68
2020/12/07 06:50:20;;;;;;;9.83;8.63;;;;;;;0.61;100.00;96409.56;4998697;28;20200;-68
2020/12/07 06:52:48;;;;;;;9.40;8.50;;;;;;;0.62;100.00;96406.81;4994159;28;20640;-67
2020/12/07 06:55:17;;;;;;;9.97;9.00;;;;;;;0.66;100.00;96413.38;4965736;28;20228;-66
2020/12/07 06:57:45;;;;;;;10.37;9.37;;;;;;;0.62;100.00;96412.03;4990470;28;21167;-69
2020/12/07 07:00:15;;;;;;;8.73;7.90;;;;;;;0.76;100.00;96412.53;4989403;28;20217;-67
2020/12/07 07:02:43;;;;;;;8.77;8.00;;;;;;;0.94;100.00;96423.06;4988589;28;20227;-68
2020/12/07 07:05:11;;;;;;;9.40;8.50;;;;;;;0.74;100.00;96417.91;5016721;28;20236;-67
2020/12/07 07:07:38;;;;;;;9.83;8.83;;;;;;;0.64;100.00;96425.75;5001433;28;20220;-69
2020/12/07 07:10:07;;;;;;;8.50;7.67;;;;;;;0.79;100.00;96426.13;4978093;28;20208;-67
2020/12/07 07:12:34;;;;;;;7.83;7.13;;;;;;;0.73;100.00;96429.31;5020319;28;20333;-70
2020/12/07 07:15:02;;;;;;;8.57;7.87;;;;;;;0.56;100.00;96436.06;5007652;28;20232;-70
2020/12/07 07:17:30;;;;;;;8.07;7.37;;;;;;;0.61;100.00;96436.44;5020970;28;20196;-70
2020/12/07 07:19:57;;;;;;;7.93;7.17;;;;;;;0.68;100.00;96439.34;5023544;28;20806;-70
2020/12/07 07:22:24;;;;;;;7.10;6.50;;;;;;;0.63;100.00;96449.38;4991114;28;20197;-69
2020/12/07 07:30:19;;;;;;;7.43;6.83;;;;;;;0.55;100.00;96455.25;5002626;28;20238;-67
2020/12/07 07:32:47;;;;;;;7.73;7.13;;;;;;;0.46;100.00;96458.72;5013341;28;20207;-68
2020/12/07 07:35:15;;;;;;;8.20;7.40;;;;;;;0.52;100.00;96465.97;5016602;28;20679;-67
2020/12/07 07:37:44;;;;;;;7.80;7.13;;;;;;;0.53;100.00;96472.81;5016623;28;20256;-71
2020/12/07 07:40:12;;;;;;;8.27;7.57;;;;;;;0.75;100.00;96482.13;5018560;28;20208;-69
2020/12/07 07:42:44;;;;;;;7.63;6.93;;;;;;;0.66;100.00;96481.19;4982492;28;20418;-68
2020/12/07 07:45:14;;;;;;;7.43;6.77;;;;;;;0.72;100.00;96478.00;4992487;28;20228;-70
2020/12/07 07:47:49;;;;;;;8.53;7.60;;;;;;;0.85;100.00;96487.34;5023830;28;20215;-70
2020/12/07 07:50:34;;;;;;;7.87;7.20;;;;;;;0.86;100.00;96484.56;5016551;28;20208;-70
2020/12/07 08:16:20;;;;;;;6.37;5.87;;;;;;;1.28;100.00;96530.38;5011996;28;20747;-70
2020/12/07 08:18:48;;;;;;;5.47;5.07;;;;;;;1.39;100.00;96538.97;5004899;28;20951;-68
2020/12/07 08:21:25;;;;;;;5.90;5.40;;;;;;;1.35;100.00;96541.06;5019923;28;20203;-69
2020/12/07 08:23:58;;;;;;;8.37;6.03;;;;;;;1.29;100.00;96544.22;5015090;28;20459;-70
2020/12/07 08:26:25;;;;;;;5.30;4.90;;;;;;;1.46;100.00;96539.25;5006507;28;20227;-67
2020/12/07 08:28:54;;;;;;;5.13;4.80;;;;;;;1.34;100.00;96541.19;4976098;28;21109;-69
2020/12/07 08:31:22;;;;;;;5.40;5.00;;;;;;;1.29;100.00;96545.06;5015509;28;20456;-67
2020/12/07 08:34:00;;;;;;;4.40;4.10;;;;;;;1.36;100.00;96545.31;5016734;28;20392;-70
2020/12/07 08:36:28;;;;;;;4.83;4.53;;;;;;;1.43;100.00;96545.56;5019797;28;20576;-67
2020/12/07 08:38:56;;;;;;;4.40;4.17;;;;;;;1.58;100.00;96538.09;5019639;28;20239;-69
2020/12/07 08:41:24;;;;;;;4.83;4.53;;;;;;;1.53;100.00;96541.16;5015995;28;20204;-67
2020/12/07 08:43:52;;;;;;;4.40;4.20;;;;;;;1.61;100.00;96544.84;4979140;28;21181;-69
2020/12/07 08:46:20;;;;;;;4.77;4.47;;;;;;;1.66;100.00;96547.84;5003061;28;20219;-68
2020/12/07 08:48:49;;;;;;;5.00;4.70;;;;;;;1.87;100.00;96551.03;5011084;28;20438;-69
2020/12/07 08:51:19;;;;;;;4.63;4.33;;;;;;;1.83;100.00;96556.69;5009068;28;20212;-69
2020/12/07 08:53:46;;;;;;;4.80;4.50;;;;;;;1.83;100.00;96561.91;5019916;28;20196;-70
2020/12/07 08:56:13;;;;;;;4.53;4.23;;;;;;;1.96;100.00;96565.00;5017678;28;20786;-70
2020/12/07 08:58:40;;;;;;;4.50;4.20;;;;;;;2.08;100.00;96581.31;4955584;28;20785;-68
2020/12/07 09:01:08;;;;;;;4.00;3.80;;;;;;;2.10;100.00;96575.97;5016235;28;20208;-69
2020/12/07 09:03:37;;;;;;;4.37;3.93;;;;;;;2.20;100.00;96579.34;5004311;28;20725;-67
2020/12/07 09:06:05;;;;;;;4.50;4.20;;;;;;;2.07;100.00;96587.53;5015496;28;20247;-68
2020/12/07 09:08:32;;;;;;;3.77;3.57;;;;;;;2.16;100.00;96584.03;5013081;28;20886;-67
2020/12/07 09:10:59;;;;;;;4.40;4.10;;;;;;;2.05;100.00;96592.06;5014922;28;20226;-69
2020/12/07 09:13:26;;;;;;;3.77;3.53;;;;;;;2.06;100.00;96592.88;5014218;28;20215;-66
2020/12/07 09:15:54;;;;;;;4.20;3.80;;;;;;;2.01;100.00;96599.38;4973367;28;20698;-67
2020/12/07 09:18:21;;;;;;;4.60;4.30;;;;;;;2.10;100.00;96609.94;5021573;28;20215;-69
2020/12/07 09:20:48;;;;;;;4.43;4.13;;;;;;;2.08;100.00;96604.00;5016380;28;20200;-69
2020/12/07 09:23:17;;;;;;;4.37;4.07;;;;;;;2.01;100.00;96604.59;5025037;28;20255;-69
2020/12/07 09:25:44;;;;;;;4.23;3.93;;;;;;;2.16;100.00;96610.16;5017824;28;20535;-69
2020/12/07 09:28:11;;;;;;;4.60;4.20;;;;;;;2.01;100.00;96611.63;5024360;28;20516;-69
2020/12/07 09:30:38;;;;;;;4.73;4.43;;;;;;;2.06;100.00;96613.78;4979685;28;20231;-67
2020/12/07 09:33:05;;;;;;;4.43;4.23;;;;;;;2.06;100.00;96613.78;5018768;28;20207;-67
2020/12/07 09:35:32;;;;;;;4.93;4.63;;;;;;;1.94;100.00;96621.00;5019620;28;20258;-66
2020/12/07 09:38:00;;;;;;;5.97;5.37;;;;;;;1.82;100.00;96615.94;5023038;28;20274;-69
2020/12/07 09:40:28;;;;;;;6.47;5.93;;;;;;;2.01;100.00;96614.25;5023227;28;20208;-66
2020/12/07 09:42:55;;;;;;;6.73;6.17;;;;;;;1.94;100.00;96616.59;5016673;28;20208;-70
2020/12/07 09:45:22;;;;;;;5.97;5.57;;;;;;;2.09;100.00;96616.13;5014593;28;20544;-67
2020/12/07 09:47:50;;;;;;;5.00;4.70;;;;;;;2.16;100.00;96620.63;4992938;28;20312;-70
2020/12/07 09:50:17;;;;;;;4.77;4.47;;;;;;;2.13;100.00;96622.72;5029017;28;20603;-68
2020/12/07 09:52:44;;;;;;;5.00;4.70;;;;;;;2.07;100.00;96629.34;5017074;28;20204;-69
2020/12/07 09:55:12;;;;;;;5.07;4.67;;;;;;;2.07;100.00;96618.88;5023646;28;20224;-69
2020/12/07 09:57:40;;;;;;;4.93;4.53;;;;;;;2.23;100.00;96617.44;5016544;28;20213;-67
2020/12/07 10:00:07;;;;;;;5.57;5.27;;;;;;;2.04;100.00;96621.78;5022928;28;20474;-68
2020/12/07 10:02:35;;;;;;;5.70;5.20;;;;;;;2.05;100.00;96615.59;4980404;28;20211;-68
2020/12/07 10:05:03;;;;;;;6.37;5.77;;;;;;;2.35;100.00;96615.44;5026715;28;20234;-68
2020/12/07 10:07:30;;;;;;;6.27;5.77;;;;;;;2.44;100.00;96614.56;5018806;28;20559;-66
2020/12/07 10:09:57;;;;;;;6.73;6.13;;;;;;;2.33;100.00;96609.53;5023598;28;20700;-69
2020/12/07 10:12:24;;;;;;;5.77;5.37;;;;;;;2.30;100.00;96615.91;5018458;28;20203;-67
2020/12/07 10:14:55;;;;;;;6.33;5.93;;;;;;;2.48;100.00;96605.47;5020903;28;20508;-69
2020/12/07 10:17:22;;;;;;;6.40;5.90;;;;;;;2.60;100.00;96601.66;5015836;28;20227;-66
2020/12/07 10:19:49;;;;;;;6.07;5.67;;;;;;;2.66;100.00;96599.44;4992323;28;20608;-70
2020/12/07 10:22:16;;;;;;;6.40;5.90;;;;;;;2.80;100.00;96604.13;5025121;28;20215;-70
2020/12/07 10:24:43;;;;;;;6.50;6.00;;;;;;;2.71;100.00;96598.03;5015416;28;20220;-67
2020/12/07 10:27:11;;;;;;;6.33;5.93;;;;;;;2.64;100.00;96602.19;5021740;28;20218;-69
2020/12/07 10:29:38;;;;;;;6.23;5.73;;;;;;;3.01;100.00;96601.22;5018093;28;20225;-66
2020/12/07 10:32:05;;;;;;;6.57;6.10;;;;;;;2.88;100.00;96601.63;5018607;28;20209;-69
2020/12/07 10:34:33;;;;;;;7.07;6.43;;;;;;;3.02;100.00;96596.81;4985835;28;20329;-67
2020/12/07 10:37:00;;;;;;;6.70;6.20;;;;;;;3.05;100.00;96599.13;5020294;28;20211;-70
2020/12/07 10:39:28;;;;;;;8.60;7.83;;;;;;;3.13;100.00;96598.38;5014979;28;20937;-67
2020/12/07 10:41:54;;;;;;;7.00;6.47;;;;;;;3.09;100.00;96594.44;5019627;28;20200;-69
2020/12/07 10:44:22;;;;;;;6.97;6.47;;;;;;;3.27;100.00;96591.78;5020209;28;20227;-67
2020/12/07 10:46:49;;;;;;;6.10;5.70;;;;;;;3.44;100.00;96587.47;5015828;28;20459;-68
2020/12/07 10:49:17;;;;;;;5.97;5.57;;;;;;;3.38;100.00;96573.19;4985467;28;20615;-67
2020/12/07 10:51:45;;;;;;;6.93;6.43;;;;;;;3.51;100.00;96574.56;5020321;28;20238;-69
2020/12/07 10:54:12;;;;;;;7.03;6.40;;;;;;;3.72;100.00;96567.19;5017844;28;20212;-68
2020/12/07 10:56:43;;;;;;;7.00;6.43;;;;;;;3.80;100.00;96565.56;5020862;28;20408;-68
2020/12/07 10:59:10;;;;;;;6.20;5.70;;;;;;;4.13;100.00;96570.97;5022110;28;20208;-69
2020/12/07 11:01:37;;;;;;;7.63;7.03;;;;;;;3.52;100.00;96563.97;5022573;28;20211;-67
2020/12/07 11:04:04;;;;;;;7.87;7.23;;;;;;;3.31;100.00;96580.03;4978657;28;20224;-67
2020/12/07 11:06:34;;;;;;;7.30;6.40;;;;;;;3.78;100.00;96578.81;5002108;28;20220;-68
2020/12/07 11:09:06;;;;;;;6.57;6.03;;;;;;;3.80;100.00;96578.66;5007540;28;20223;-67
2020/12/07 11:11:33;;;;;;;6.30;5.80;;;;;;;3.79;100.00;96579.66;5020398;28;20234;-68
2020/12/07 11:14:00;;;;;;;6.60;6.10;;;;;;;3.47;100.00;96593.22;5005093;28;20346;-69
2020/12/07 11:16:27;;;;;;;7.57;7.00;;;;;;;3.62;100.00;96603.16;5015704;28;20204;-67
2020/12/07 11:18:54;;;;;;;6.93;5.97;;;;;;;3.72;100.00;96597.78;5015239;28;20204;-67
2020/12/07 11:21:21;;;;;;;6.53;6.03;;;;;;;3.71;100.00;96594.34;4981416;28;20216;-67
2020/12/07 11:23:50;;;;;;;6.80;6.23;;;;;;;3.82;100.00;96602.91;5006582;28;21024;-66
2020/12/07 11:26:18;;;;;;;5.43;5.03;;;;;;;4.01;100.00;96594.00;5013241;28;20228;-69
2020/12/07 11:28:46;;;;;;;5.67;5.27;;;;;;;4.09;99.53;96593.22;5016419;28;20588;-69
2020/12/07 11:31:14;;;;;;;5.97;5.57;;;;;;;3.62;100.00;96590.06;5018277;28;20208;-68
2020/12/07 11:33:42;;;;;;;5.53;5.13;;;;;;;3.59;100.00;96585.09;5013761;28;20215;-66
2020/12/07 11:36:14;;;;;;;6.23;5.63;;;;;;;3.43;100.00;96586.66;4982947;28;20235;-69
2020/12/07 11:38:42;;;;;;;6.37;5.77;;;;;;;3.28;100.00;96590.81;4981656;28;20523;-68
2020/12/07 11:41:22;;;;;;;6.33;5.77;;;;;;;3.37;100.00;96589.03;4985102;28;20209;-66
2020/12/07 11:43:54;;;;;;;8.60;7.20;;;;;;;3.49;100.00;96590.47;5015444;28;20793;-67
2020/12/07 11:46:29;;;;;;;9.13;8.27;;;;;;;3.68;100.00;96576.31;5000102;28;20391;-69
2020/12/07 11:48:57;;;;;;;7.40;6.83;;;;;;;3.48;100.00;96570.47;5013020;28;20212;-67
2020/12/07 11:51:25;;;;;;;7.03;6.43;;;;;;;3.45;100.00;96581.28;4977895;28;21547;-68
2020/12/07 11:53:54;;;;;;;6.97;6.37;;;;;;;3.43;100.00;96580.59;5011698;28;20211;-66
2020/12/07 11:56:30;;;;;;;5.80;5.40;;;;;;;3.46;100.00;96577.66;5002359;28;20209;-68
2020/12/07 11:58:57;;;;;;;6.03;5.63;;;;;;;3.43;100.00;96578.78;5019426;28;20204;-66
2020/12/07 12:01:24;;;;;;;6.47;5.97;;;;;;;3.53;100.00;96573.47;5003887;28;20556;-67
2020/12/07 12:03:52;;;;;;;6.43;5.83;;;;;;;3.60;100.00;96584.94;4975473;28;20699;-68